sensor_id;sensor_type;location;lat;lon;timestamp;P1;durP1;ratioP1;P2;durP2;ratioP2
61460;SDS011;47325;50.506;4.472;2022-10-23T00:05:31;4.40;;;1.70;;
61460;SDS011;47325;50.506;4.472;2022-10-23T00:11:16;3.50;;;1.60;;
61460;SDS011;47325;50.506;4.472;2022-10-23T00:17:00;3.20;;;1.40;;
61460;SDS011;47325;50.506;4.472;2022-10-23T00:22:43;2.60;;;1.60;;
61460;SDS011;47325;50.506;4.472;2022-10-23T00:28:26;3.20;;;1.40;;
61460;SDS011;47325;50.506;4.472;2022-10-23T00:34:09;3.60;;;1.50;;
61460;SDS011;47325;50.506;4.472;2022-10-23T00:39:52;3.70;;;1.60;;
61460;SDS011;47325;50.506;4.472;2022-10-23T00:45:36;4.80;;;1.50;;
61460;SDS011;47325;50.506;4.472;2022-10-23T00:51:20;2.90;;;1.40;;
61460;SDS011;47325;50.506;4.472;2022-10-23T00:57:04;3.20;;;1.60;;
61460;SDS011;47325;50.506;4.472;2022-10-23T01:02:47;4.10;;;1.60;;
61460;SDS011;47325;50.506;4.472;2022-10-23T01:08:31;3.20;;;1.60;;
61460;SDS011;47325;50.506;4.472;2022-10-23T01:14:19;3.00;;;1.50;;
61460;SDS011;47325;50.506;4.472;2022-10-23T01:32:08;3.60;;;1.50;;
61460;SDS011;47325;50.506;4.472;2022-10-23T01:37:57;4.30;;;1.50;;
61460;SDS011;47325;50.506;4.472;2022-10-23T01:43:44;2.60;;;1.40;;
61460;SDS011;47325;50.506;4.472;2022-10-23T01:49:28;4.50;;;1.40;;
61460;SDS011;47325;50.506;4.472;2022-10-23T01:55:12;3.00;;;1.40;;
61460;SDS011;47325;50.506;4.472;2022-10-23T02:00:57;1.60;;;1.20;;
61460;SDS011;47325;50.506;4.472;2022-10-23T02:06:43;3.40;;;1.30;;
61460;SDS011;47325;50.506;4.472;2022-10-23T02:12:30;2.70;;;1.40;;
61460;SDS011;47325;50.506;4.472;2022-10-23T02:18:19;3.20;;;1.40;;
61460;SDS011;47325;50.506;4.472;2022-10-23T02:24:06;2.70;;;1.40;;
61460;SDS011;47325;50.506;4.472;2022-10-23T02:29:50;2.80;;;1.30;;
61460;SDS011;47325;50.506;4.472;2022-10-23T02:35:35;3.30;;;1.30;;
61460;SDS011;47325;50.506;4.472;2022-10-23T02:41:21;3.10;;;1.20;;
61460;SDS011;47325;50.506;4.472;2022-10-23T02:47:11;1.90;;;1.20;;
61460;SDS011;47325;50.506;4.472;2022-10-23T02:53:00;1.90;;;1.20;;
61460;SDS011;47325;50.506;4.472;2022-10-23T02:58:47;2.80;;;1.30;;
61460;SDS011;47325;50.506;4.472;2022-10-23T03:04:34;3.80;;;1.10;;
61460;SDS011;47325;50.506;4.472;2022-10-23T03:10:19;2.10;;;1.20;;
61460;SDS011;47325;50.506;4.472;2022-10-23T03:16:02;3.20;;;1.20;;
61460;SDS011;47325;50.506;4.472;2022-10-23T03:21:46;4.50;;;1.40;;
61460;SDS011;47325;50.506;4.472;2022-10-23T03:27:30;3.40;;;1.20;;
61460;SDS011;47325;50.506;4.472;2022-10-23T03:33:13;3.30;;;1.20;;
61460;SDS011;47325;50.506;4.472;2022-10-23T03:38:56;3.50;;;1.10;;
61460;SDS011;47325;50.506;4.472;2022-10-23T03:44:40;2.10;;;1.30;;
61460;SDS011;47325;50.506;4.472;2022-10-23T03:50:23;1.90;;;1.20;;
61460;SDS011;47325;50.506;4.472;2022-10-23T03:56:07;3.80;;;1.20;;
61460;SDS011;47325;50.506;4.472;2022-10-23T04:01:51;3.20;;;1.20;;
61460;SDS011;47325;50.506;4.472;2022-10-23T04:07:35;2.30;;;1.10;;
61460;SDS011;47325;50.506;4.472;2022-10-23T04:13:18;3.00;;;1.20;;
61460;SDS011;47325;50.506;4.472;2022-10-23T04:19:02;3.40;;;1.20;;
61460;SDS011;47325;50.506;4.472;2022-10-23T04:24:45;4.60;;;1.30;;
61460;SDS011;47325;50.506;4.472;2022-10-23T04:30:29;1.80;;;1.00;;
61460;SDS011;47325;50.506;4.472;2022-10-23T04:36:12;2.10;;;1.10;;
61460;SDS011;47325;50.506;4.472;2022-10-23T04:41:56;2.20;;;1.30;;
61460;SDS011;47325;50.506;4.472;2022-10-23T04:47:39;3.10;;;1.20;;
61460;SDS011;47325;50.506;4.472;2022-10-23T04:53:22;2.60;;;1.20;;
61460;SDS011;47325;50.506;4.472;2022-10-23T04:59:06;2.70;;;1.20;;
61460;SDS011;47325;50.506;4.472;2022-10-23T05:04:49;2.40;;;1.20;;
61460;SDS011;47325;50.506;4.472;2022-10-23T05:10:33;3.00;;;1.30;;
61460;SDS011;47325;50.506;4.472;2022-10-23T05:16:19;2.30;;;1.30;;
61460;SDS011;47325;50.506;4.472;2022-10-23T05:22:06;4.10;;;1.20;;
61460;SDS011;47325;50.506;4.472;2022-10-23T05:27:51;3.60;;;1.40;;
61460;SDS011;47325;50.506;4.472;2022-10-23T05:33:34;2.70;;;1.10;;
61460;SDS011;47325;50.506;4.472;2022-10-23T05:39:18;3.00;;;1.20;;
61460;SDS011;47325;50.506;4.472;2022-10-23T05:45:02;2.30;;;1.10;;
61460;SDS011;47325;50.506;4.472;2022-10-23T05:50:45;2.50;;;1.40;;
61460;SDS011;47325;50.506;4.472;2022-10-23T05:56:28;2.60;;;1.10;;
61460;SDS011;47325;50.506;4.472;2022-10-23T06:02:11;3.10;;;1.20;;
61460;SDS011;47325;50.506;4.472;2022-10-23T06:07:59;4.60;;;1.40;;
61460;SDS011;47325;50.506;4.472;2022-10-23T06:13:42;2.40;;;1.30;;
61460;SDS011;47325;50.506;4.472;2022-10-23T06:19:26;2.70;;;1.30;;
61460;SDS011;47325;50.506;4.472;2022-10-23T06:25:10;3.30;;;1.40;;
61460;SDS011;47325;50.506;4.472;2022-10-23T06:30:53;1.70;;;1.20;;
61460;SDS011;47325;50.506;4.472;2022-10-23T06:36:37;2.30;;;1.30;;
61460;SDS011;47325;50.506;4.472;2022-10-23T06:42:20;2.00;;;1.30;;
61460;SDS011;47325;50.506;4.472;2022-10-23T06:48:04;1.80;;;1.10;;
61460;SDS011;47325;50.506;4.472;2022-10-23T06:53:47;2.30;;;1.30;;
61460;SDS011;47325;50.506;4.472;2022-10-23T06:59:30;2.10;;;1.30;;
61460;SDS011;47325;50.506;4.472;2022-10-23T07:05:14;1.80;;;1.30;;
61460;SDS011;47325;50.506;4.472;2022-10-23T07:11:00;2.10;;;1.40;;
61460;SDS011;47325;50.506;4.472;2022-10-23T07:16:44;1.60;;;1.30;;
61460;SDS011;47325;50.506;4.472;2022-10-23T07:22:28;2.80;;;1.30;;
61460;SDS011;47325;50.506;4.472;2022-10-23T07:28:11;3.40;;;1.40;;
61460;SDS011;47325;50.506;4.472;2022-10-23T07:33:55;3.30;;;1.40;;
61460;SDS011;47325;50.506;4.472;2022-10-23T07:39:40;2.40;;;1.40;;
61460;SDS011;47325;50.506;4.472;2022-10-23T07:45:23;3.10;;;1.50;;
61460;SDS011;47325;50.506;4.472;2022-10-23T07:51:07;1.80;;;1.30;;
61460;SDS011;47325;50.506;4.472;2022-10-23T07:56:50;1.80;;;1.40;;
61460;SDS011;47325;50.506;4.472;2022-10-23T08:02:34;2.80;;;1.40;;
61460;SDS011;47325;50.506;4.472;2022-10-23T08:08:18;2.10;;;1.20;;
61460;SDS011;47325;50.506;4.472;2022-10-23T08:14:02;3.80;;;1.60;;
61460;SDS011;47325;50.506;4.472;2022-10-23T08:19:46;3.60;;;1.40;;
61460;SDS011;47325;50.506;4.472;2022-10-23T08:25:30;3.70;;;1.60;;
61460;SDS011;47325;50.506;4.472;2022-10-23T08:31:13;4.20;;;1.70;;
61460;SDS011;47325;50.506;4.472;2022-10-23T08:36:57;2.40;;;1.40;;
61460;SDS011;47325;50.506;4.472;2022-10-23T08:42:40;2.90;;;1.50;;
61460;SDS011;47325;50.506;4.472;2022-10-23T08:48:27;2.50;;;1.50;;
61460;SDS011;47325;50.506;4.472;2022-10-23T08:54:14;4.00;;;1.80;;
61460;SDS011;47325;50.506;4.472;2022-10-23T09:00:00;3.40;;;1.50;;
61460;SDS011;47325;50.506;4.472;2022-10-23T09:05:50;3.10;;;1.70;;
61460;SDS011;47325;50.506;4.472;2022-10-23T09:11:37;2.60;;;1.50;;
61460;SDS011;47325;50.506;4.472;2022-10-23T09:17:26;2.80;;;1.50;;
61460;SDS011;47325;50.506;4.472;2022-10-23T09:23:11;3.10;;;1.60;;
61460;SDS011;47325;50.506;4.472;2022-10-23T09:29:01;3.40;;;1.40;;
61460;SDS011;47325;50.506;4.472;2022-10-23T09:34:53;3.10;;;1.40;;
61460;SDS011;47325;50.506;4.472;2022-10-23T09:40:39;2.50;;;1.60;;
61460;SDS011;47325;50.506;4.472;2022-10-23T09:46:24;4.20;;;1.60;;
61460;SDS011;47325;50.506;4.472;2022-10-23T09:52:22;5.10;;;2.00;;
61460;SDS011;47325;50.506;4.472;2022-10-23T09:58:16;5.00;;;1.70;;
61460;SDS011;47325;50.506;4.472;2022-10-23T10:04:01;5.60;;;1.70;;
61460;SDS011;47325;50.506;4.472;2022-10-23T10:09:44;6.30;;;1.80;;
61460;SDS011;47325;50.506;4.472;2022-10-23T10:15:29;7.70;;;1.80;;
61460;SDS011;47325;50.506;4.472;2022-10-23T10:21:16;4.80;;;1.90;;
61460;SDS011;47325;50.506;4.472;2022-10-23T10:27:04;3.40;;;1.90;;
61460;SDS011;47325;50.506;4.472;2022-10-23T10:32:50;5.00;;;1.80;;
61460;SDS011;47325;50.506;4.472;2022-10-23T10:38:41;6.40;;;2.00;;
61460;SDS011;47325;50.506;4.472;2022-10-23T10:44:28;3.30;;;1.80;;
61460;SDS011;47325;50.506;4.472;2022-10-23T10:50:18;4.70;;;1.80;;
61460;SDS011;47325;50.506;4.472;2022-10-23T10:56:03;3.60;;;1.70;;
61460;SDS011;47325;50.506;4.472;2022-10-23T11:01:55;4.50;;;2.00;;
61460;SDS011;47325;50.506;4.472;2022-10-23T11:07:40;3.60;;;1.70;;
61460;SDS011;47325;50.506;4.472;2022-10-23T11:13:27;4.50;;;1.70;;
61460;SDS011;47325;50.506;4.472;2022-10-23T11:19:16;4.60;;;1.80;;
61460;SDS011;47325;50.506;4.472;2022-10-23T11:25:05;4.80;;;1.80;;
61460;SDS011;47325;50.506;4.472;2022-10-23T11:30:53;3.60;;;2.00;;
61460;SDS011;47325;50.506;4.472;2022-10-23T11:36:44;4.50;;;1.90;;
61460;SDS011;47325;50.506;4.472;2022-10-23T11:42:44;6.60;;;2.00;;
61460;SDS011;47325;50.506;4.472;2022-10-23T11:48:34;10.90;;;2.50;;
61460;SDS011;47325;50.506;4.472;2022-10-23T11:54:23;11.80;;;2.30;;
61460;SDS011;47325;50.506;4.472;2022-10-23T12:06:05;9.80;;;2.30;;
61460;SDS011;47325;50.506;4.472;2022-10-23T12:11:59;7.90;;;2.50;;
61460;SDS011;47325;50.506;4.472;2022-10-23T12:17:37;6.20;;;2.30;;
61460;SDS011;47325;50.506;4.472;2022-10-23T12:23:36;5.20;;;2.40;;
61460;SDS011;47325;50.506;4.472;2022-10-23T12:29:36;5.60;;;2.50;;
61460;SDS011;47325;50.506;4.472;2022-10-23T12:35:25;7.40;;;2.40;;
61460;SDS011;47325;50.506;4.472;2022-10-23T12:41:13;7.10;;;2.30;;
61460;SDS011;47325;50.506;4.472;2022-10-23T12:46:58;9.20;;;2.30;;
61460;SDS011;47325;50.506;4.472;2022-10-23T12:52:42;6.50;;;2.60;;
61460;SDS011;47325;50.506;4.472;2022-10-23T12:58:31;9.30;;;2.80;;
61460;SDS011;47325;50.506;4.472;2022-10-23T13:04:17;8.00;;;2.80;;
61460;SDS011;47325;50.506;4.472;2022-10-23T13:10:04;7.30;;;2.60;;
61460;SDS011;47325;50.506;4.472;2022-10-23T13:15:48;5.80;;;2.70;;
61460;SDS011;47325;50.506;4.472;2022-10-23T13:21:31;5.10;;;2.40;;
61460;SDS011;47325;50.506;4.472;2022-10-23T13:27:24;5.50;;;2.20;;
61460;SDS011;47325;50.506;4.472;2022-10-23T13:33:18;5.10;;;2.40;;
61460;SDS011;47325;50.506;4.472;2022-10-23T13:39:11;4.50;;;2.10;;
61460;SDS011;47325;50.506;4.472;2022-10-23T13:44:55;4.70;;;2.40;;
61460;SDS011;47325;50.506;4.472;2022-10-23T13:50:39;4.40;;;2.40;;
61460;SDS011;47325;50.506;4.472;2022-10-23T13:56:23;6.10;;;2.40;;
61460;SDS011;47325;50.506;4.472;2022-10-23T14:02:07;4.70;;;2.30;;
61460;SDS011;47325;50.506;4.472;2022-10-23T14:07:56;6.00;;;2.40;;
61460;SDS011;47325;50.506;4.472;2022-10-23T14:13:39;6.70;;;2.90;;
61460;SDS011;47325;50.506;4.472;2022-10-23T14:19:23;5.30;;;2.80;;
61460;SDS011;47325;50.506;4.472;2022-10-23T14:25:07;4.80;;;2.40;;
61460;SDS011;47325;50.506;4.472;2022-10-23T14:30:51;6.20;;;2.80;;
61460;SDS011;47325;50.506;4.472;2022-10-23T14:36:34;4.40;;;2.50;;
61460;SDS011;47325;50.506;4.472;2022-10-23T14:42:37;6.30;;;2.50;;
61460;SDS011;47325;50.506;4.472;2022-10-23T14:48:21;6.00;;;2.70;;
61460;SDS011;47325;50.506;4.472;2022-10-23T14:54:05;6.50;;;2.70;;
61460;SDS011;47325;50.506;4.472;2022-10-23T14:59:48;6.00;;;2.40;;
61460;SDS011;47325;50.506;4.472;2022-10-23T15:05:32;10.40;;;2.90;;
61460;SDS011;47325;50.506;4.472;2022-10-23T15:11:15;4.20;;;2.40;;
61460;SDS011;47325;50.506;4.472;2022-10-23T15:16:59;4.80;;;2.40;;
61460;SDS011;47325;50.506;4.472;2022-10-23T15:22:43;5.20;;;2.50;;
61460;SDS011;47325;50.506;4.472;2022-10-23T15:28:28;4.30;;;2.30;;
61460;SDS011;47325;50.506;4.472;2022-10-23T15:34:12;4.90;;;2.60;;
61460;SDS011;47325;50.506;4.472;2022-10-23T15:39:56;4.40;;;2.70;;
61460;SDS011;47325;50.506;4.472;2022-10-23T15:45:44;5.30;;;2.60;;
61460;SDS011;47325;50.506;4.472;2022-10-23T15:51:27;7.80;;;2.90;;
61460;SDS011;47325;50.506;4.472;2022-10-23T15:57:11;7.10;;;2.60;;
61460;SDS011;47325;50.506;4.472;2022-10-23T16:02:55;6.10;;;2.40;;
61460;SDS011;47325;50.506;4.472;2022-10-23T16:08:38;5.50;;;2.50;;
61460;SDS011;47325;50.506;4.472;2022-10-23T16:14:22;5.00;;;2.40;;
61460;SDS011;47325;50.506;4.472;2022-10-23T16:20:05;6.50;;;2.80;;
61460;SDS011;47325;50.506;4.472;2022-10-23T16:25:49;6.60;;;2.60;;
61460;SDS011;47325;50.506;4.472;2022-10-23T16:31:32;5.20;;;2.40;;
61460;SDS011;47325;50.506;4.472;2022-10-23T16:37:16;7.50;;;2.60;;
61460;SDS011;47325;50.506;4.472;2022-10-23T16:42:59;6.20;;;2.60;;
61460;SDS011;47325;50.506;4.472;2022-10-23T16:48:42;3.50;;;2.50;;
61460;SDS011;47325;50.506;4.472;2022-10-23T16:54:26;7.70;;;2.70;;
61460;SDS011;47325;50.506;4.472;2022-10-23T17:00:10;5.40;;;2.70;;
61460;SDS011;47325;50.506;4.472;2022-10-23T17:05:53;6.80;;;2.80;;
61460;SDS011;47325;50.506;4.472;2022-10-23T17:11:51;3.80;;;2.50;;
61460;SDS011;47325;50.506;4.472;2022-10-23T17:17:35;4.70;;;2.60;;
61460;SDS011;47325;50.506;4.472;2022-10-23T17:23:18;4.70;;;2.50;;
61460;SDS011;47325;50.506;4.472;2022-10-23T17:29:03;6.10;;;2.40;;
61460;SDS011;47325;50.506;4.472;2022-10-23T17:34:46;5.80;;;2.50;;
61460;SDS011;47325;50.506;4.472;2022-10-23T17:40:30;5.90;;;2.40;;
61460;SDS011;47325;50.506;4.472;2022-10-23T17:46:14;5.30;;;2.20;;
61460;SDS011;47325;50.506;4.472;2022-10-23T17:51:57;4.40;;;2.30;;
61460;SDS011;47325;50.506;4.472;2022-10-23T17:57:41;6.60;;;2.60;;
61460;SDS011;47325;50.506;4.472;2022-10-23T18:03:26;7.10;;;2.50;;
61460;SDS011;47325;50.506;4.472;2022-10-23T18:09:09;5.60;;;2.30;;
61460;SDS011;47325;50.506;4.472;2022-10-23T18:14:52;5.50;;;2.20;;
61460;SDS011;47325;50.506;4.472;2022-10-23T18:20:37;4.90;;;2.30;;
61460;SDS011;47325;50.506;4.472;2022-10-23T18:26:21;6.10;;;2.40;;
61460;SDS011;47325;50.506;4.472;2022-10-23T18:32:04;5.50;;;2.40;;
61460;SDS011;47325;50.506;4.472;2022-10-23T18:37:47;5.00;;;2.60;;
61460;SDS011;47325;50.506;4.472;2022-10-23T18:43:31;6.10;;;2.50;;
61460;SDS011;47325;50.506;4.472;2022-10-23T18:49:26;6.40;;;2.60;;
61460;SDS011;47325;50.506;4.472;2022-10-23T18:55:11;7.20;;;2.60;;
61460;SDS011;47325;50.506;4.472;2022-10-23T19:00:56;9.30;;;2.70;;
61460;SDS011;47325;50.506;4.472;2022-10-23T19:06:39;7.70;;;2.80;;
61460;SDS011;47325;50.506;4.472;2022-10-23T19:12:23;8.30;;;2.70;;
61460;SDS011;47325;50.506;4.472;2022-10-23T19:18:08;5.90;;;2.70;;
61460;SDS011;47325;50.506;4.472;2022-10-23T19:23:52;6.80;;;2.70;;
61460;SDS011;47325;50.506;4.472;2022-10-23T19:29:35;8.30;;;2.80;;
61460;SDS011;47325;50.506;4.472;2022-10-23T19:35:20;4.70;;;2.50;;
61460;SDS011;47325;50.506;4.472;2022-10-23T19:41:04;5.90;;;2.70;;
61460;SDS011;47325;50.506;4.472;2022-10-23T19:46:47;5.90;;;2.50;;
61460;SDS011;47325;50.506;4.472;2022-10-23T19:52:32;7.70;;;3.10;;
61460;SDS011;47325;50.506;4.472;2022-10-23T19:58:15;7.60;;;3.00;;
61460;SDS011;47325;50.506;4.472;2022-10-23T20:03:58;7.10;;;3.20;;
61460;SDS011;47325;50.506;4.472;2022-10-23T20:09:42;6.20;;;3.20;;
61460;SDS011;47325;50.506;4.472;2022-10-23T20:15:25;8.80;;;3.20;;
61460;SDS011;47325;50.506;4.472;2022-10-23T20:21:08;7.50;;;3.30;;
61460;SDS011;47325;50.506;4.472;2022-10-23T20:26:53;10.20;;;3.40;;
61460;SDS011;47325;50.506;4.472;2022-10-23T20:32:37;8.30;;;3.60;;
61460;SDS011;47325;50.506;4.472;2022-10-23T20:38:22;10.20;;;3.20;;
61460;SDS011;47325;50.506;4.472;2022-10-23T20:44:06;10.30;;;3.50;;
61460;SDS011;47325;50.506;4.472;2022-10-23T20:49:51;8.40;;;3.40;;
61460;SDS011;47325;50.506;4.472;2022-10-23T20:55:35;9.00;;;3.60;;
61460;SDS011;47325;50.506;4.472;2022-10-23T21:01:22;9.90;;;3.50;;
61460;SDS011;47325;50.506;4.472;2022-10-23T21:07:07;6.00;;;3.30;;
61460;SDS011;47325;50.506;4.472;2022-10-23T21:12:53;6.10;;;3.40;;
61460;SDS011;47325;50.506;4.472;2022-10-23T21:18:36;9.60;;;3.60;;
61460;SDS011;47325;50.506;4.472;2022-10-23T21:24:28;8.60;;;3.50;;
61460;SDS011;47325;50.506;4.472;2022-10-23T21:30:12;8.00;;;3.20;;
61460;SDS011;47325;50.506;4.472;2022-10-23T21:35:55;7.70;;;3.00;;
61460;SDS011;47325;50.506;4.472;2022-10-23T21:41:53;11.10;;;3.40;;
61460;SDS011;47325;50.506;4.472;2022-10-23T21:47:37;7.20;;;3.10;;
61460;SDS011;47325;50.506;4.472;2022-10-23T21:53:20;6.60;;;3.00;;
61460;SDS011;47325;50.506;4.472;2022-10-23T21:59:03;7.50;;;3.00;;
61460;SDS011;47325;50.506;4.472;2022-10-23T22:04:47;6.70;;;2.80;;
61460;SDS011;47325;50.506;4.472;2022-10-23T22:10:32;5.30;;;2.70;;
61460;SDS011;47325;50.506;4.472;2022-10-23T22:16:16;4.90;;;2.50;;
61460;SDS011;47325;50.506;4.472;2022-10-23T22:21:59;6.50;;;2.60;;
61460;SDS011;47325;50.506;4.472;2022-10-23T22:27:42;8.10;;;2.50;;
61460;SDS011;47325;50.506;4.472;2022-10-23T22:33:27;5.70;;;2.30;;
61460;SDS011;47325;50.506;4.472;2022-10-23T22:39:10;5.70;;;2.10;;
61460;SDS011;47325;50.506;4.472;2022-10-23T22:44:53;6.50;;;2.20;;
61460;SDS011;47325;50.506;4.472;2022-10-23T22:50:36;5.50;;;2.20;;
61460;SDS011;47325;50.506;4.472;2022-10-23T22:56:21;4.10;;;2.10;;
61460;SDS011;47325;50.506;4.472;2022-10-23T23:02:04;5.00;;;2.10;;
61460;SDS011;47325;50.506;4.472;2022-10-23T23:07:47;4.50;;;2.10;;
61460;SDS011;47325;50.506;4.472;2022-10-23T23:13:31;6.00;;;2.60;;
61460;SDS011;47325;50.506;4.472;2022-10-23T23:19:17;6.40;;;2.50;;
61460;SDS011;47325;50.506;4.472;2022-10-23T23:25:01;7.90;;;2.80;;
61460;SDS011;47325;50.506;4.472;2022-10-23T23:30:45;6.10;;;2.60;;
61460;SDS011;47325;50.506;4.472;2022-10-23T23:36:29;4.60;;;2.40;;
61460;SDS011;47325;50.506;4.472;2022-10-23T23:42:13;9.10;;;3.10;;
61460;SDS011;47325;50.506;4.472;2022-10-23T23:47:57;6.10;;;2.70;;
61460;SDS011;47325;50.506;4.472;2022-10-23T23:53:40;5.30;;;2.30;;
61460;SDS011;47325;50.506;4.472;2022-10-23T23:59:24;5.50;;;2.60;;
